sensor_id;sensor_type;location;lat;lon;timestamp;temperature;humidity
26479;DHT22;14163;-26.142;27.992;2023-04-20T00:01:03;22.00;75.60
26479;DHT22;14163;-26.142;27.992;2023-04-20T02:05:50;16.30;99.90
26479;DHT22;14163;-26.142;27.992;2023-04-20T02:08:21;16.50;99.90
26479;DHT22;14163;-26.142;27.992;2023-04-20T02:10:50;17.10;99.90
26479;DHT22;14163;-26.142;27.992;2023-04-20T02:13:19;17.90;99.90
26479;DHT22;14163;-26.142;27.992;2023-04-20T02:15:48;18.60;99.90
26479;DHT22;14163;-26.142;27.992;2023-04-20T02:18:18;19.10;99.90
26479;DHT22;14163;-26.142;27.992;2023-04-20T02:20:49;19.60;99.90
26479;DHT22;14163;-26.142;27.992;2023-04-20T02:23:18;19.90;99.90
26479;DHT22;14163;-26.142;27.992;2023-04-20T02:25:47;20.10;99.90
26479;DHT22;14163;-26.142;27.992;2023-04-20T02:28:16;20.10;99.90
26479;DHT22;14163;-26.142;27.992;2023-04-20T02:30:46;20.20;99.90
26479;DHT22;14163;-26.142;27.992;2023-04-20T02:33:15;20.30;99.90
26479;DHT22;14163;-26.142;27.992;2023-04-20T02:35:49;20.30;99.90
26479;DHT22;14163;-26.142;27.992;2023-04-20T02:38:18;20.20;99.90
26479;DHT22;14163;-26.142;27.992;2023-04-20T02:40:47;20.30;99.90
26479;DHT22;14163;-26.142;27.992;2023-04-20T02:43:17;20.30;99.90
26479;DHT22;14163;-26.142;27.992;2023-04-20T02:45:46;20.30;99.90
26479;DHT22;14163;-26.142;27.992;2023-04-20T02:48:15;20.40;99.90
26479;DHT22;14163;-26.142;27.992;2023-04-20T02:50:44;20.40;99.90
26479;DHT22;14163;-26.142;27.992;2023-04-20T02:53:15;20.40;99.90
26479;DHT22;14163;-26.142;27.992;2023-04-20T02:55:44;20.40;99.90
26479;DHT22;14163;-26.142;27.992;2023-04-20T02:58:14;20.30;99.90
26479;DHT22;14163;-26.142;27.992;2023-04-20T03:00:43;20.30;99.90
26479;DHT22;14163;-26.142;27.992;2023-04-20T03:03:12;20.20;99.90
26479;DHT22;14163;-26.142;27.992;2023-04-20T03:05:42;20.20;99.90
26479;DHT22;14163;-26.142;27.992;2023-04-20T03:08:11;20.20;99.90
26479;DHT22;14163;-26.142;27.992;2023-04-20T03:10:42;20.20;99.90
26479;DHT22;14163;-26.142;27.992;2023-04-20T03:13:11;20.10;99.90
26479;DHT22;14163;-26.142;27.992;2023-04-20T03:15:41;20.10;99.90
26479;DHT22;14163;-26.142;27.992;2023-04-20T03:18:11;20.10;99.90
26479;DHT22;14163;-26.142;27.992;2023-04-20T03:20:41;20.10;99.90
26479;DHT22;14163;-26.142;27.992;2023-04-20T03:23:10;20.00;99.90
26479;DHT22;14163;-26.142;27.992;2023-04-20T03:25:41;20.00;99.90
26479;DHT22;14163;-26.142;27.992;2023-04-20T03:28:12;19.90;99.90
26479;DHT22;14163;-26.142;27.992;2023-04-20T03:30:41;19.90;99.90
26479;DHT22;14163;-26.142;27.992;2023-04-20T03:33:10;19.90;99.90
26479;DHT22;14163;-26.142;27.992;2023-04-20T03:35:40;19.90;99.90
26479;DHT22;14163;-26.142;27.992;2023-04-20T03:38:09;19.90;99.90
26479;DHT22;14163;-26.142;27.992;2023-04-20T03:40:38;20.00;99.90
26479;DHT22;14163;-26.142;27.992;2023-04-20T03:43:09;20.00;99.90
26479;DHT22;14163;-26.142;27.992;2023-04-20T03:45:38;20.00;99.90
26479;DHT22;14163;-26.142;27.992;2023-04-20T03:48:07;20.10;99.90
26479;DHT22;14163;-26.142;27.992;2023-04-20T03:50:37;20.00;99.90
26479;DHT22;14163;-26.142;27.992;2023-04-20T03:53:06;20.00;99.90
26479;DHT22;14163;-26.142;27.992;2023-04-20T03:55:35;19.80;99.90
26479;DHT22;14163;-26.142;27.992;2023-04-20T03:58:05;19.70;99.90
26479;DHT22;14163;-26.142;27.992;2023-04-20T04:00:36;19.70;99.90
26479;DHT22;14163;-26.142;27.992;2023-04-20T04:03:05;19.70;99.90
26479;DHT22;14163;-26.142;27.992;2023-04-20T04:05:35;19.70;99.90
26479;DHT22;14163;-26.142;27.992;2023-04-20T04:08:04;19.70;99.90
26479;DHT22;14163;-26.142;27.992;2023-04-20T04:10:33;19.70;99.90
26479;DHT22;14163;-26.142;27.992;2023-04-20T04:13:03;19.70;99.90
26479;DHT22;14163;-26.142;27.992;2023-04-20T04:15:32;19.80;99.90
26479;DHT22;14163;-26.142;27.992;2023-04-20T04:18:03;19.80;99.90
26479;DHT22;14163;-26.142;27.992;2023-04-20T04:20:32;19.90;99.90
26479;DHT22;14163;-26.142;27.992;2023-04-20T04:23:02;19.80;99.90
26479;DHT22;14163;-26.142;27.992;2023-04-20T04:25:31;19.90;99.90
26479;DHT22;14163;-26.142;27.992;2023-04-20T04:28:01;19.80;99.90
26479;DHT22;14163;-26.142;27.992;2023-04-20T04:30:30;19.80;99.90
26479;DHT22;14163;-26.142;27.992;2023-04-20T04:32:59;19.80;99.90
26479;DHT22;14163;-26.142;27.992;2023-04-20T04:35:32;19.80;99.90
26479;DHT22;14163;-26.142;27.992;2023-04-20T04:38:01;19.80;99.90
26479;DHT22;14163;-26.142;27.992;2023-04-20T04:40:30;19.80;99.90
26479;DHT22;14163;-26.142;27.992;2023-04-20T04:43:00;19.80;99.90
26479;DHT22;14163;-26.142;27.992;2023-04-20T04:45:29;19.80;99.90
26479;DHT22;14163;-26.142;27.992;2023-04-20T04:47:59;19.80;99.90
26479;DHT22;14163;-26.142;27.992;2023-04-20T04:50:30;19.80;99.90
26479;DHT22;14163;-26.142;27.992;2023-04-20T04:53:01;19.90;99.90
26479;DHT22;14163;-26.142;27.992;2023-04-20T04:55:30;19.90;99.90
26479;DHT22;14163;-26.142;27.992;2023-04-20T04:57:59;19.90;99.90
26479;DHT22;14163;-26.142;27.992;2023-04-20T05:00:28;19.90;99.90
26479;DHT22;14163;-26.142;27.992;2023-04-20T05:02:57;19.90;99.90
26479;DHT22;14163;-26.142;27.992;2023-04-20T05:05:27;19.80;99.90
26479;DHT22;14163;-26.142;27.992;2023-04-20T05:07:58;19.80;99.90
26479;DHT22;14163;-26.142;27.992;2023-04-20T05:10:27;19.70;99.90
26479;DHT22;14163;-26.142;27.992;2023-04-20T05:12:56;19.80;99.90
26479;DHT22;14163;-26.142;27.992;2023-04-20T05:15:26;19.80;99.90
26479;DHT22;14163;-26.142;27.992;2023-04-20T05:17:55;19.80;99.90
26479;DHT22;14163;-26.142;27.992;2023-04-20T05:20:24;19.90;99.90
26479;DHT22;14163;-26.142;27.992;2023-04-20T05:22:54;19.90;99.90
26479;DHT22;14163;-26.142;27.992;2023-04-20T05:25:25;20.00;99.90
26479;DHT22;14163;-26.142;27.992;2023-04-20T05:27:54;19.90;99.90
26479;DHT22;14163;-26.142;27.992;2023-04-20T05:30:24;20.00;99.90
26479;DHT22;14163;-26.142;27.992;2023-04-20T05:32:54;20.00;99.90
26479;DHT22;14163;-26.142;27.992;2023-04-20T05:35:23;20.00;99.90
26479;DHT22;14163;-26.142;27.992;2023-04-20T05:37:53;19.90;99.90
26479;DHT22;14163;-26.142;27.992;2023-04-20T05:40:24;19.80;99.90
26479;DHT22;14163;-26.142;27.992;2023-04-20T05:42:53;19.80;99.90
26479;DHT22;14163;-26.142;27.992;2023-04-20T05:45:22;19.80;99.90
26479;DHT22;14163;-26.142;27.992;2023-04-20T05:47:55;20.00;99.90
26479;DHT22;14163;-26.142;27.992;2023-04-20T05:50:25;19.80;99.90
26479;DHT22;14163;-26.142;27.992;2023-04-20T05:52:55;19.60;99.90
26479;DHT22;14163;-26.142;27.992;2023-04-20T05:55:25;19.50;99.90
26479;DHT22;14163;-26.142;27.992;2023-04-20T05:57:54;19.60;99.90
26479;DHT22;14163;-26.142;27.992;2023-04-20T06:00:24;19.90;99.90
26479;DHT22;14163;-26.142;27.992;2023-04-20T06:02:53;19.80;99.90
26479;DHT22;14163;-26.142;27.992;2023-04-20T06:05:22;19.80;99.90
26479;DHT22;14163;-26.142;27.992;2023-04-20T06:07:52;20.00;99.90
26479;DHT22;14163;-26.142;27.992;2023-04-20T06:10:21;20.20;99.90
26479;DHT22;14163;-26.142;27.992;2023-04-20T06:12:52;20.40;99.90
26479;DHT22;14163;-26.142;27.992;2023-04-20T06:15:21;20.60;99.90
26479;DHT22;14163;-26.142;27.992;2023-04-20T06:17:50;20.70;99.90
26479;DHT22;14163;-26.142;27.992;2023-04-20T06:20:20;20.70;99.90
26479;DHT22;14163;-26.142;27.992;2023-04-20T06:22:49;20.80;99.90
26479;DHT22;14163;-26.142;27.992;2023-04-20T06:25:19;20.80;99.90
26479;DHT22;14163;-26.142;27.992;2023-04-20T06:27:48;20.80;99.90
26479;DHT22;14163;-26.142;27.992;2023-04-20T06:30:19;20.70;99.90
26479;DHT22;14163;-26.142;27.992;2023-04-20T06:32:48;20.60;99.90
26479;DHT22;14163;-26.142;27.992;2023-04-20T06:35:17;20.60;99.90
26479;DHT22;14163;-26.142;27.992;2023-04-20T06:37:47;20.70;99.90
26479;DHT22;14163;-26.142;27.992;2023-04-20T06:40:16;20.80;99.90
26479;DHT22;14163;-26.142;27.992;2023-04-20T06:42:45;20.90;99.90
26479;DHT22;14163;-26.142;27.992;2023-04-20T06:45:14;20.90;99.90
26479;DHT22;14163;-26.142;27.992;2023-04-20T06:47:45;20.60;99.90
26479;DHT22;14163;-26.142;27.992;2023-04-20T06:50:14;20.40;99.90
26479;DHT22;14163;-26.142;27.992;2023-04-20T06:52:44;20.50;99.90
26479;DHT22;14163;-26.142;27.992;2023-04-20T06:55:15;20.50;99.90
26479;DHT22;14163;-26.142;27.992;2023-04-20T06:57:45;20.70;99.90
26479;DHT22;14163;-26.142;27.992;2023-04-20T07:00:15;20.60;99.90
26479;DHT22;14163;-26.142;27.992;2023-04-20T07:02:48;20.60;99.90
26479;DHT22;14163;-26.142;27.992;2023-04-20T07:05:18;20.70;99.90
26479;DHT22;14163;-26.142;27.992;2023-04-20T07:07:47;20.60;99.90
26479;DHT22;14163;-26.142;27.992;2023-04-20T07:10:17;20.60;99.90
26479;DHT22;14163;-26.142;27.992;2023-04-20T07:12:46;20.20;99.90
26479;DHT22;14163;-26.142;27.992;2023-04-20T07:15:15;20.10;99.90
26479;DHT22;14163;-26.142;27.992;2023-04-20T07:17:46;20.20;99.90
26479;DHT22;14163;-26.142;27.992;2023-04-20T07:20:15;20.30;99.90
26479;DHT22;14163;-26.142;27.992;2023-04-20T07:22:45;20.50;99.90
26479;DHT22;14163;-26.142;27.992;2023-04-20T07:25:14;20.50;99.90
26479;DHT22;14163;-26.142;27.992;2023-04-20T07:27:43;20.50;99.90
26479;DHT22;14163;-26.142;27.992;2023-04-20T07:30:13;20.50;99.90
26479;DHT22;14163;-26.142;27.992;2023-04-20T07:32:42;20.30;99.90
26479;DHT22;14163;-26.142;27.992;2023-04-20T07:35:13;20.40;99.90
26479;DHT22;14163;-26.142;27.992;2023-04-20T07:37:43;20.60;99.90
26479;DHT22;14163;-26.142;27.992;2023-04-20T07:40:12;20.50;99.90
26479;DHT22;14163;-26.142;27.992;2023-04-20T07:42:42;20.40;99.90
26479;DHT22;14163;-26.142;27.992;2023-04-20T07:45:12;20.40;99.90
26479;DHT22;14163;-26.142;27.992;2023-04-20T07:47:41;20.50;99.90
26479;DHT22;14163;-26.142;27.992;2023-04-20T07:50:15;20.40;99.90
26479;DHT22;14163;-26.142;27.992;2023-04-20T07:52:45;20.40;99.90
26479;DHT22;14163;-26.142;27.992;2023-04-20T07:55:19;20.50;99.90
26479;DHT22;14163;-26.142;27.992;2023-04-20T07:57:49;20.60;99.90
26479;DHT22;14163;-26.142;27.992;2023-04-20T08:00:19;20.80;99.90
26479;DHT22;14163;-26.142;27.992;2023-04-20T08:02:49;20.80;99.90
26479;DHT22;14163;-26.142;27.992;2023-04-20T10:07:36;22.90;97.80
26479;DHT22;14163;-26.142;27.992;2023-04-20T10:10:07;23.70;94.70
26479;DHT22;14163;-26.142;27.992;2023-04-20T10:12:47;24.00;92.40
26479;DHT22;14163;-26.142;27.992;2023-04-20T10:15:18;24.60;91.00
26479;DHT22;14163;-26.142;27.992;2023-04-20T10:17:48;25.60;89.30
26479;DHT22;14163;-26.142;27.992;2023-04-20T10:20:25;26.20;87.20
26479;DHT22;14163;-26.142;27.992;2023-04-20T10:23:07;27.10;79.90
26479;DHT22;14163;-26.142;27.992;2023-04-20T10:25:37;27.80;76.90
26479;DHT22;14163;-26.142;27.992;2023-04-20T10:28:07;27.20;76.10
26479;DHT22;14163;-26.142;27.992;2023-04-20T10:30:48;27.80;71.20
26479;DHT22;14163;-26.142;27.992;2023-04-20T10:33:18;28.40;69.00
26479;DHT22;14163;-26.142;27.992;2023-04-20T10:35:50;28.80;66.60
26479;DHT22;14163;-26.142;27.992;2023-04-20T10:38:33;29.60;64.90
26479;DHT22;14163;-26.142;27.992;2023-04-20T10:41:06;30.30;67.40
26479;DHT22;14163;-26.142;27.992;2023-04-20T10:43:36;30.60;65.50
26479;DHT22;14163;-26.142;27.992;2023-04-20T10:46:16;31.30;61.70
26479;DHT22;14163;-26.142;27.992;2023-04-20T10:48:52;32.00;59.90
26479;DHT22;14163;-26.142;27.992;2023-04-20T10:51:23;31.30;60.80
26479;DHT22;14163;-26.142;27.992;2023-04-20T10:54:05;31.70;60.20
26479;DHT22;14163;-26.142;27.992;2023-04-20T10:56:39;31.90;58.60
26479;DHT22;14163;-26.142;27.992;2023-04-20T10:59:09;32.20;56.30
26479;DHT22;14163;-26.142;27.992;2023-04-20T11:01:39;32.50;55.20
26479;DHT22;14163;-26.142;27.992;2023-04-20T11:04:09;31.70;55.10
26479;DHT22;14163;-26.142;27.992;2023-04-20T11:06:40;31.50;55.70
26479;DHT22;14163;-26.142;27.992;2023-04-20T11:09:22;32.00;55.80
26479;DHT22;14163;-26.142;27.992;2023-04-20T11:11:58;31.40;55.60
26479;DHT22;14163;-26.142;27.992;2023-04-20T11:14:29;31.50;54.70
26479;DHT22;14163;-26.142;27.992;2023-04-20T11:16:58;31.80;54.40
26479;DHT22;14163;-26.142;27.992;2023-04-20T11:19:28;32.00;53.50
26479;DHT22;14163;-26.142;27.992;2023-04-20T11:21:58;32.50;52.80
26479;DHT22;14163;-26.142;27.992;2023-04-20T11:24:30;33.20;52.40
26479;DHT22;14163;-26.142;27.992;2023-04-20T11:26:59;34.00;51.00
26479;DHT22;14163;-26.142;27.992;2023-04-20T11:29:31;34.10;49.80
26479;DHT22;14163;-26.142;27.992;2023-04-20T11:32:02;34.00;49.90
26479;DHT22;14163;-26.142;27.992;2023-04-20T11:34:33;33.20;49.10
26479;DHT22;14163;-26.142;27.992;2023-04-20T11:37:04;32.70;50.30
26479;DHT22;14163;-26.142;27.992;2023-04-20T11:39:36;32.80;50.70
26479;DHT22;14163;-26.142;27.992;2023-04-20T11:42:05;32.80;49.10
26479;DHT22;14163;-26.142;27.992;2023-04-20T11:44:35;32.90;49.50
26479;DHT22;14163;-26.142;27.992;2023-04-20T11:47:07;33.10;48.60
26479;DHT22;14163;-26.142;27.992;2023-04-20T11:49:36;33.00;48.70
26479;DHT22;14163;-26.142;27.992;2023-04-20T11:52:05;31.80;48.30
26479;DHT22;14163;-26.142;27.992;2023-04-20T11:54:36;31.00;49.40
26479;DHT22;14163;-26.142;27.992;2023-04-20T11:57:05;30.90;50.40
26479;DHT22;14163;-26.142;27.992;2023-04-20T11:59:35;31.50;50.60
26479;DHT22;14163;-26.142;27.992;2023-04-20T12:02:04;32.40;48.90
26479;DHT22;14163;-26.142;27.992;2023-04-20T12:04:33;32.90;48.20
26479;DHT22;14163;-26.142;27.992;2023-04-20T12:07:02;32.90;48.20
26479;DHT22;14163;-26.142;27.992;2023-04-20T12:09:32;32.60;47.90
26479;DHT22;14163;-26.142;27.992;2023-04-20T12:12:05;32.70;47.90
26479;DHT22;14163;-26.142;27.992;2023-04-20T12:14:36;32.40;48.00
26479;DHT22;14163;-26.142;27.992;2023-04-20T12:17:05;32.20;48.10
26479;DHT22;14163;-26.142;27.992;2023-04-20T12:19:34;31.80;47.90
26479;DHT22;14163;-26.142;27.992;2023-04-20T12:22:04;31.30;48.10
26479;DHT22;14163;-26.142;27.992;2023-04-20T12:24:33;30.90;48.90
26479;DHT22;14163;-26.142;27.992;2023-04-20T12:27:04;30.30;49.30
26479;DHT22;14163;-26.142;27.992;2023-04-20T12:29:33;30.20;49.70
26479;DHT22;14163;-26.142;27.992;2023-04-20T12:32:03;30.30;49.60
26479;DHT22;14163;-26.142;27.992;2023-04-20T12:34:32;29.70;49.30
26479;DHT22;14163;-26.142;27.992;2023-04-20T12:37:01;29.20;49.40
26479;DHT22;14163;-26.142;27.992;2023-04-20T12:39:30;29.10;49.60
26479;DHT22;14163;-26.142;27.992;2023-04-20T12:42:00;28.90;49.60
26479;DHT22;14163;-26.142;27.992;2023-04-20T12:44:32;29.00;49.70
26479;DHT22;14163;-26.142;27.992;2023-04-20T12:47:02;28.80;49.90
26479;DHT22;14163;-26.142;27.992;2023-04-20T12:49:32;28.80;49.80
26479;DHT22;14163;-26.142;27.992;2023-04-20T12:52:01;29.00;51.10
26479;DHT22;14163;-26.142;27.992;2023-04-20T12:54:30;29.20;50.20
26479;DHT22;14163;-26.142;27.992;2023-04-20T12:57:00;29.40;49.80
26479;DHT22;14163;-26.142;27.992;2023-04-20T12:59:29;29.20;49.30
26479;DHT22;14163;-26.142;27.992;2023-04-20T13:02:00;28.90;50.10
26479;DHT22;14163;-26.142;27.992;2023-04-20T13:04:29;28.40;50.50
26479;DHT22;14163;-26.142;27.992;2023-04-20T13:06:59;28.30;51.40
26479;DHT22;14163;-26.142;27.992;2023-04-20T13:09:28;28.30;51.80
26479;DHT22;14163;-26.142;27.992;2023-04-20T13:11:57;28.10;51.70
26479;DHT22;14163;-26.142;27.992;2023-04-20T13:14:27;27.90;52.80
26479;DHT22;14163;-26.142;27.992;2023-04-20T13:16:56;27.90;53.00
26479;DHT22;14163;-26.142;27.992;2023-04-20T13:19:29;28.20;52.60
26479;DHT22;14163;-26.142;27.992;2023-04-20T13:21:59;28.40;52.80
26479;DHT22;14163;-26.142;27.992;2023-04-20T13:24:28;28.40;52.50
26479;DHT22;14163;-26.142;27.992;2023-04-20T13:26:57;28.40;52.80
26479;DHT22;14163;-26.142;27.992;2023-04-20T13:29:27;28.30;52.20
26479;DHT22;14163;-26.142;27.992;2023-04-20T13:31:56;27.90;53.10
26479;DHT22;14163;-26.142;27.992;2023-04-20T13:34:25;27.50;52.80
26479;DHT22;14163;-26.142;27.992;2023-04-20T13:36:56;27.80;53.50
26479;DHT22;14163;-26.142;27.992;2023-04-20T13:39:25;28.00;53.40
26479;DHT22;14163;-26.142;27.992;2023-04-20T13:41:55;27.80;53.10
26479;DHT22;14163;-26.142;27.992;2023-04-20T13:44:24;27.50;53.90
26479;DHT22;14163;-26.142;27.992;2023-04-20T13:46:54;27.60;54.20
26479;DHT22;14163;-26.142;27.992;2023-04-20T13:49:23;27.60;53.80
26479;DHT22;14163;-26.142;27.992;2023-04-20T13:51:52;27.60;53.40
26479;DHT22;14163;-26.142;27.992;2023-04-20T13:54:23;27.60;53.20
26479;DHT22;14163;-26.142;27.992;2023-04-20T13:56:53;27.70;53.10
26479;DHT22;14163;-26.142;27.992;2023-04-20T13:59:22;27.50;53.20
26479;DHT22;14163;-26.142;27.992;2023-04-20T14:01:51;27.40;53.50
26479;DHT22;14163;-26.142;27.992;2023-04-20T14:04:20;27.30;53.20
26479;DHT22;14163;-26.142;27.992;2023-04-20T14:06:49;27.20;54.30
26479;DHT22;14163;-26.142;27.992;2023-04-20T14:09:19;27.20;54.20
26479;DHT22;14163;-26.142;27.992;2023-04-20T14:11:50;27.20;54.50
26479;DHT22;14163;-26.142;27.992;2023-04-20T14:14:19;27.20;55.20
26479;DHT22;14163;-26.142;27.992;2023-04-20T14:16:49;27.20;55.10
26479;DHT22;14163;-26.142;27.992;2023-04-20T14:19:18;27.10;54.50
26479;DHT22;14163;-26.142;27.992;2023-04-20T14:21:49;27.30;54.60
26479;DHT22;14163;-26.142;27.992;2023-04-20T14:24:19;27.30;55.30
26479;DHT22;14163;-26.142;27.992;2023-04-20T14:26:50;27.30;55.20
26479;DHT22;14163;-26.142;27.992;2023-04-20T14:29:19;27.20;55.00
26479;DHT22;14163;-26.142;27.992;2023-04-20T14:31:49;27.30;55.00
26479;DHT22;14163;-26.142;27.992;2023-04-20T14:34:18;27.40;54.80
26479;DHT22;14163;-26.142;27.992;2023-04-20T14:36:47;27.50;54.50
26479;DHT22;14163;-26.142;27.992;2023-04-20T14:39:18;27.40;54.30
26479;DHT22;14163;-26.142;27.992;2023-04-20T14:41:50;27.20;54.90
26479;DHT22;14163;-26.142;27.992;2023-04-20T14:44:20;27.00;54.60
26479;DHT22;14163;-26.142;27.992;2023-04-20T14:46:49;26.90;55.60
26479;DHT22;14163;-26.142;27.992;2023-04-20T14:49:18;26.90;56.10
26479;DHT22;14163;-26.142;27.992;2023-04-20T14:51:48;26.60;56.60
26479;DHT22;14163;-26.142;27.992;2023-04-20T14:54:17;26.50;57.10
26479;DHT22;14163;-26.142;27.992;2023-04-20T14:56:46;26.40;57.20
26479;DHT22;14163;-26.142;27.992;2023-04-20T14:59:17;26.40;57.40
26479;DHT22;14163;-26.142;27.992;2023-04-20T15:01:46;26.20;57.50
26479;DHT22;14163;-26.142;27.992;2023-04-20T15:04:15;26.30;57.80
26479;DHT22;14163;-26.142;27.992;2023-04-20T15:06:45;26.20;58.20
26479;DHT22;14163;-26.142;27.992;2023-04-20T15:09:14;26.10;58.60
26479;DHT22;14163;-26.142;27.992;2023-04-20T15:11:44;26.10;58.80
26479;DHT22;14163;-26.142;27.992;2023-04-20T15:14:16;26.10;58.70
26479;DHT22;14163;-26.142;27.992;2023-04-20T15:16:45;26.20;58.80
26479;DHT22;14163;-26.142;27.992;2023-04-20T15:19:18;26.10;59.20
26479;DHT22;14163;-26.142;27.992;2023-04-20T15:21:48;26.00;59.40
26479;DHT22;14163;-26.142;27.992;2023-04-20T15:24:17;26.00;59.70
26479;DHT22;14163;-26.142;27.992;2023-04-20T15:26:46;26.10;59.90
26479;DHT22;14163;-26.142;27.992;2023-04-20T15:29:17;26.10;60.00
26479;DHT22;14163;-26.142;27.992;2023-04-20T15:31:46;26.20;60.00
26479;DHT22;14163;-26.142;27.992;2023-04-20T15:34:15;26.20;59.90
26479;DHT22;14163;-26.142;27.992;2023-04-20T15:36:45;26.20;60.00
26479;DHT22;14163;-26.142;27.992;2023-04-20T15:39:14;26.20;60.10
26479;DHT22;14163;-26.142;27.992;2023-04-20T15:41:43;26.40;60.10
26479;DHT22;14163;-26.142;27.992;2023-04-20T15:44:12;26.30;60.40
26479;DHT22;14163;-26.142;27.992;2023-04-20T15:46:43;26.30;60.40
26479;DHT22;14163;-26.142;27.992;2023-04-20T15:49:12;26.30;60.80
26479;DHT22;14163;-26.142;27.992;2023-04-20T15:51:45;26.40;61.10
26479;DHT22;14163;-26.142;27.992;2023-04-20T15:54:16;26.40;61.30
26479;DHT22;14163;-26.142;27.992;2023-04-20T15:56:49;26.50;61.70
26479;DHT22;14163;-26.142;27.992;2023-04-20T15:59:18;26.50;61.90
26479;DHT22;14163;-26.142;27.992;2023-04-20T17:28:17;21.90;80.90
26479;DHT22;14163;-26.142;27.992;2023-04-20T17:30:46;21.50;82.40
26479;DHT22;14163;-26.142;27.992;2023-04-20T17:33:16;22.10;80.50
26479;DHT22;14163;-26.142;27.992;2023-04-20T17:35:45;22.90;80.30
26479;DHT22;14163;-26.142;27.992;2023-04-20T17:38:14;23.50;79.00
26479;DHT22;14163;-26.142;27.992;2023-04-20T17:40:44;24.10;77.30
26479;DHT22;14163;-26.142;27.992;2023-04-20T17:43:13;24.50;76.40
26479;DHT22;14163;-26.142;27.992;2023-04-20T17:45:44;24.80;75.10
26479;DHT22;14163;-26.142;27.992;2023-04-20T17:48:16;25.00;75.90
26479;DHT22;14163;-26.142;27.992;2023-04-20T17:50:48;25.10;75.80
26479;DHT22;14163;-26.142;27.992;2023-04-20T17:53:17;25.20;74.70
26479;DHT22;14163;-26.142;27.992;2023-04-20T17:55:47;25.20;73.50
26479;DHT22;14163;-26.142;27.992;2023-04-20T17:58:16;25.30;74.40
26479;DHT22;14163;-26.142;27.992;2023-04-20T18:00:47;25.30;74.20
26479;DHT22;14163;-26.142;27.992;2023-04-20T18:03:17;25.40;74.10
26479;DHT22;14163;-26.142;27.992;2023-04-20T18:05:46;25.40;72.10
26479;DHT22;14163;-26.142;27.992;2023-04-20T18:08:16;25.30;71.40
26479;DHT22;14163;-26.142;27.992;2023-04-20T18:10:46;25.20;71.80
26479;DHT22;14163;-26.142;27.992;2023-04-20T18:13:16;25.10;72.80
26479;DHT22;14163;-26.142;27.992;2023-04-20T18:15:46;25.20;73.00
26479;DHT22;14163;-26.142;27.992;2023-04-20T18:18:15;25.10;72.00
26479;DHT22;14163;-26.142;27.992;2023-04-20T18:20:47;25.10;72.70
26479;DHT22;14163;-26.142;27.992;2023-04-20T18:23:16;25.10;71.80
26479;DHT22;14163;-26.142;27.992;2023-04-20T18:25:46;25.10;70.40
26479;DHT22;14163;-26.142;27.992;2023-04-20T18:28:15;25.10;71.70
26479;DHT22;14163;-26.142;27.992;2023-04-20T18:30:46;25.00;72.70
26479;DHT22;14163;-26.142;27.992;2023-04-20T18:33:15;25.00;72.50
26479;DHT22;14163;-26.142;27.992;2023-04-20T18:35:44;25.00;72.00
26479;DHT22;14163;-26.142;27.992;2023-04-20T18:38:14;25.00;72.40
26479;DHT22;14163;-26.142;27.992;2023-04-20T18:40:43;25.00;72.80
26479;DHT22;14163;-26.142;27.992;2023-04-20T18:43:12;24.90;71.00
26479;DHT22;14163;-26.142;27.992;2023-04-20T18:45:41;24.90;69.90
26479;DHT22;14163;-26.142;27.992;2023-04-20T18:48:12;24.90;70.80
26479;DHT22;14163;-26.142;27.992;2023-04-20T18:50:41;24.90;69.00
26479;DHT22;14163;-26.142;27.992;2023-04-20T18:53:11;24.90;71.10
26479;DHT22;14163;-26.142;27.992;2023-04-20T18:55:40;24.90;71.70
26479;DHT22;14163;-26.142;27.992;2023-04-20T18:58:09;24.80;71.60
26479;DHT22;14163;-26.142;27.992;2023-04-20T19:00:38;24.80;71.60
26479;DHT22;14163;-26.142;27.992;2023-04-20T19:03:08;24.70;72.20
26479;DHT22;14163;-26.142;27.992;2023-04-20T19:05:39;24.60;72.40
26479;DHT22;14163;-26.142;27.992;2023-04-20T19:08:08;24.60;70.70
26479;DHT22;14163;-26.142;27.992;2023-04-20T19:10:38;24.50;72.40
26479;DHT22;14163;-26.142;27.992;2023-04-20T19:13:07;24.50;72.60
26479;DHT22;14163;-26.142;27.992;2023-04-20T19:15:36;24.50;72.40
26479;DHT22;14163;-26.142;27.992;2023-04-20T19:18:07;24.40;71.10
26479;DHT22;14163;-26.142;27.992;2023-04-20T19:20:38;24.40;70.30
26479;DHT22;14163;-26.142;27.992;2023-04-20T19:23:07;24.40;70.30
26479;DHT22;14163;-26.142;27.992;2023-04-20T19:25:36;24.40;71.30
26479;DHT22;14163;-26.142;27.992;2023-04-20T19:28:05;24.40;69.40
26479;DHT22;14163;-26.142;27.992;2023-04-20T19:30:36;24.40;71.00
26479;DHT22;14163;-26.142;27.992;2023-04-20T19:33:05;24.30;71.10
26479;DHT22;14163;-26.142;27.992;2023-04-20T19:35:34;24.30;71.10
26479;DHT22;14163;-26.142;27.992;2023-04-20T19:38:06;24.30;69.60
26479;DHT22;14163;-26.142;27.992;2023-04-20T19:40:35;24.20;69.10
26479;DHT22;14163;-26.142;27.992;2023-04-20T19:43:04;24.20;68.90
26479;DHT22;14163;-26.142;27.992;2023-04-20T19:45:33;24.20;69.00
26479;DHT22;14163;-26.142;27.992;2023-04-20T19:48:02;24.20;68.60
26479;DHT22;14163;-26.142;27.992;2023-04-20T19:50:32;24.20;69.60
